sensor_id;sensor_type;location;lat;lon;timestamp;pressure;altitude;pressure_sealevel;temperature;humidity
15604;BME280;7902;49.042;9.092;2023-03-04T00:02:01;99663.88;;;6.85;54.89
15604;BME280;7902;49.042;9.092;2023-03-04T00:04:27;99665.50;;;6.88;54.52
15604;BME280;7902;49.042;9.092;2023-03-04T00:06:53;99664.13;;;6.81;54.31
15604;BME280;7902;49.042;9.092;2023-03-04T00:09:19;99668.94;;;6.71;54.36
15604;BME280;7902;49.042;9.092;2023-03-04T00:11:45;99671.38;;;6.74;54.31
15604;BME280;7902;49.042;9.092;2023-03-04T00:14:14;99665.53;;;6.69;54.80
15604;BME280;7902;49.042;9.092;2023-03-04T00:16:39;99667.91;;;6.74;55.00
15604;BME280;7902;49.042;9.092;2023-03-04T00:19:06;99665.84;;;6.63;55.06
15604;BME280;7902;49.042;9.092;2023-03-04T00:21:32;99664.09;;;6.64;54.83
15604;BME280;7902;49.042;9.092;2023-03-04T00:23:57;99677.94;;;6.64;55.04
15604;BME280;7902;49.042;9.092;2023-03-04T00:26:23;99668.25;;;6.68;54.85
15604;BME280;7902;49.042;9.092;2023-03-04T00:28:49;99670.06;;;6.66;55.07
15604;BME280;7902;49.042;9.092;2023-03-04T00:31:15;99679.22;;;6.55;54.73
15604;BME280;7902;49.042;9.092;2023-03-04T00:33:41;99671.78;;;6.48;55.62
15604;BME280;7902;49.042;9.092;2023-03-04T00:36:09;99675.16;;;6.50;55.02
15604;BME280;7902;49.042;9.092;2023-03-04T00:38:36;99678.25;;;6.58;54.78
15604;BME280;7902;49.042;9.092;2023-03-04T00:41:02;99669.59;;;6.57;54.91
15604;BME280;7902;49.042;9.092;2023-03-04T00:43:28;99674.59;;;6.62;54.89
15604;BME280;7902;49.042;9.092;2023-03-04T00:45:54;99672.19;;;6.57;55.18
15604;BME280;7902;49.042;9.092;2023-03-04T00:48:20;99672.19;;;6.57;54.68
15604;BME280;7902;49.042;9.092;2023-03-04T00:50:46;99662.66;;;6.56;54.65
15604;BME280;7902;49.042;9.092;2023-03-04T00:53:13;99667.25;;;6.51;54.99
15604;BME280;7902;49.042;9.092;2023-03-04T00:55:39;99672.63;;;6.48;54.78
15604;BME280;7902;49.042;9.092;2023-03-04T00:58:07;99671.16;;;6.43;55.48
15604;BME280;7902;49.042;9.092;2023-03-04T01:00:33;99661.84;;;6.37;54.69
15604;BME280;7902;49.042;9.092;2023-03-04T01:02:59;99672.31;;;6.36;54.76
15604;BME280;7902;49.042;9.092;2023-03-04T01:05:25;99657.63;;;6.35;54.68
15604;BME280;7902;49.042;9.092;2023-03-04T01:07:51;99661.34;;;6.29;55.13
15604;BME280;7902;49.042;9.092;2023-03-04T01:10:17;99652.75;;;6.27;55.05
15604;BME280;7902;49.042;9.092;2023-03-04T01:12:44;99656.97;;;6.30;54.74
15604;BME280;7902;49.042;9.092;2023-03-04T01:15:11;99660.56;;;6.27;54.57
15604;BME280;7902;49.042;9.092;2023-03-04T01:17:38;99665.72;;;6.29;54.81
15604;BME280;7902;49.042;9.092;2023-03-04T01:20:05;99662.69;;;6.19;55.22
15604;BME280;7902;49.042;9.092;2023-03-04T01:22:31;99660.94;;;6.20;54.74
15604;BME280;7902;49.042;9.092;2023-03-04T01:24:57;99660.06;;;6.19;55.02
15604;BME280;7902;49.042;9.092;2023-03-04T01:27:23;99658.31;;;6.20;55.65
15604;BME280;7902;49.042;9.092;2023-03-04T01:29:49;99658.16;;;6.23;55.26
15604;BME280;7902;49.042;9.092;2023-03-04T01:32:15;99652.94;;;6.23;55.67
15604;BME280;7902;49.042;9.092;2023-03-04T01:34:41;99664.16;;;6.25;55.26
15604;BME280;7902;49.042;9.092;2023-03-04T01:37:07;99663.16;;;6.27;55.38
15604;BME280;7902;49.042;9.092;2023-03-04T01:39:38;99657.19;;;6.25;55.34
15604;BME280;7902;49.042;9.092;2023-03-04T01:42:20;99658.47;;;6.16;55.64
15604;BME280;7902;49.042;9.092;2023-03-04T01:44:50;99654.84;;;6.19;55.78
15604;BME280;7902;49.042;9.092;2023-03-04T01:47:17;99651.63;;;6.14;55.60
15604;BME280;7902;49.042;9.092;2023-03-04T01:49:51;99649.06;;;6.12;55.52
15604;BME280;7902;49.042;9.092;2023-03-04T01:52:18;99660.66;;;6.07;55.40
15604;BME280;7902;49.042;9.092;2023-03-04T01:54:44;99645.00;;;6.07;55.19
15604;BME280;7902;49.042;9.092;2023-03-04T01:57:19;99650.63;;;5.98;55.57
15604;BME280;7902;49.042;9.092;2023-03-04T01:59:46;99642.94;;;5.95;56.13
15604;BME280;7902;49.042;9.092;2023-03-04T02:02:12;99651.81;;;5.91;56.26
15604;BME280;7902;49.042;9.092;2023-03-04T02:04:40;99646.59;;;5.91;56.29
15604;BME280;7902;49.042;9.092;2023-03-04T02:07:07;99643.72;;;5.97;56.17
15604;BME280;7902;49.042;9.092;2023-03-04T02:09:33;99648.28;;;5.92;56.27
15604;BME280;7902;49.042;9.092;2023-03-04T02:12:00;99640.75;;;5.84;56.28
15604;BME280;7902;49.042;9.092;2023-03-04T02:14:26;99635.75;;;5.80;56.55
15604;BME280;7902;49.042;9.092;2023-03-04T02:16:52;99645.22;;;5.82;56.69
15604;BME280;7902;49.042;9.092;2023-03-04T02:21:57;99637.56;;;5.79;56.52
15604;BME280;7902;49.042;9.092;2023-03-04T02:26:57;99631.34;;;5.82;56.57
15604;BME280;7902;49.042;9.092;2023-03-04T02:29:23;99638.25;;;5.83;56.56
15604;BME280;7902;49.042;9.092;2023-03-04T02:31:51;99638.25;;;5.83;55.91
15604;BME280;7902;49.042;9.092;2023-03-04T02:34:21;99636.50;;;5.83;56.34
15604;BME280;7902;49.042;9.092;2023-03-04T02:36:50;99638.50;;;5.77;56.62
15604;BME280;7902;49.042;9.092;2023-03-04T02:41:51;99635.22;;;5.73;56.75
15604;BME280;7902;49.042;9.092;2023-03-04T02:44:21;99640.22;;;5.78;56.07
15604;BME280;7902;49.042;9.092;2023-03-04T02:46:48;99641.06;;;5.78;56.63
15604;BME280;7902;49.042;9.092;2023-03-04T02:49:16;99639.94;;;5.84;56.20
15604;BME280;7902;49.042;9.092;2023-03-04T02:51:42;99641.72;;;5.83;56.39
15604;BME280;7902;49.042;9.092;2023-03-04T02:54:20;99639.16;;;5.82;56.21
15604;BME280;7902;49.042;9.092;2023-03-04T02:56:51;99636.81;;;5.75;56.37
15604;BME280;7902;49.042;9.092;2023-03-04T02:59:18;99631.69;;;5.74;56.87
15604;BME280;7902;49.042;9.092;2023-03-04T03:01:44;99641.19;;;5.75;56.71
15604;BME280;7902;49.042;9.092;2023-03-04T03:04:11;99635.75;;;5.80;56.09
15604;BME280;7902;49.042;9.092;2023-03-04T03:06:38;99635.75;;;5.80;56.18
15604;BME280;7902;49.042;9.092;2023-03-04T03:09:04;99637.59;;;5.78;55.89
15604;BME280;7902;49.042;9.092;2023-03-04T03:11:30;99638.56;;;5.75;55.99
15604;BME280;7902;49.042;9.092;2023-03-04T03:13:56;99641.38;;;5.70;56.25
15604;BME280;7902;49.042;9.092;2023-03-04T03:16:23;99638.13;;;5.65;56.30
15604;BME280;7902;49.042;9.092;2023-03-04T03:18:49;99644.28;;;5.64;56.78
15604;BME280;7902;49.042;9.092;2023-03-04T03:21:15;99636.72;;;5.58;56.35
15604;BME280;7902;49.042;9.092;2023-03-04T03:23:41;99632.69;;;5.51;56.34
15604;BME280;7902;49.042;9.092;2023-03-04T03:26:08;99635.44;;;5.48;56.42
15604;BME280;7902;49.042;9.092;2023-03-04T03:28:34;99634.22;;;5.37;56.18
15604;BME280;7902;49.042;9.092;2023-03-04T03:31:00;99645.78;;;5.29;56.53
15604;BME280;7902;49.042;9.092;2023-03-04T03:33:26;99647.41;;;5.32;56.21
15604;BME280;7902;49.042;9.092;2023-03-04T03:35:52;99648.44;;;5.28;56.54
15604;BME280;7902;49.042;9.092;2023-03-04T03:38:18;99642.59;;;5.23;56.63
15604;BME280;7902;49.042;9.092;2023-03-04T03:40:44;99634.91;;;5.20;55.90
15604;BME280;7902;49.042;9.092;2023-03-04T03:43:10;99647.22;;;5.16;56.59
15604;BME280;7902;49.042;9.092;2023-03-04T03:45:36;99640.25;;;5.17;56.54
15604;BME280;7902;49.042;9.092;2023-03-04T03:48:03;99636.75;;;5.18;56.54
15604;BME280;7902;49.042;9.092;2023-03-04T03:50:29;99637.09;;;5.09;56.85
15604;BME280;7902;49.042;9.092;2023-03-04T03:52:55;99635.28;;;5.11;56.85
15604;BME280;7902;49.042;9.092;2023-03-04T03:55:21;99635.44;;;5.08;56.41
15604;BME280;7902;49.042;9.092;2023-03-04T03:57:47;99633.69;;;5.08;56.26
15604;BME280;7902;49.042;9.092;2023-03-04T04:00:14;99636.72;;;4.98;56.95
15604;BME280;7902;49.042;9.092;2023-03-04T04:02:41;99644.34;;;5.02;56.46
15604;BME280;7902;49.042;9.092;2023-03-04T04:05:08;99640.03;;;5.01;56.74
15604;BME280;7902;49.042;9.092;2023-03-04T04:07:35;99633.22;;;4.99;56.92
15604;BME280;7902;49.042;9.092;2023-03-04T04:10:02;99639.97;;;5.03;56.51
15604;BME280;7902;49.042;9.092;2023-03-04T04:12:29;99639.84;;;5.06;56.38
15604;BME280;7902;49.042;9.092;2023-03-04T04:14:55;99642.69;;;5.00;56.34
15604;BME280;7902;49.042;9.092;2023-03-04T04:17:21;99658.06;;;5.06;56.22
15604;BME280;7902;49.042;9.092;2023-03-04T04:19:47;99663.28;;;5.06;56.06
15604;BME280;7902;49.042;9.092;2023-03-04T04:22:16;99650.25;;;5.06;56.13
15604;BME280;7902;49.042;9.092;2023-03-04T04:24:42;99646.16;;;5.00;56.29
15604;BME280;7902;49.042;9.092;2023-03-04T04:27:08;99640.19;;;4.98;55.55
15604;BME280;7902;49.042;9.092;2023-03-04T04:29:35;99646.47;;;4.93;56.70
15604;BME280;7902;49.042;9.092;2023-03-04T04:32:01;99651.53;;;4.96;55.93
15604;BME280;7902;49.042;9.092;2023-03-04T04:34:27;99642.31;;;4.89;56.48
15604;BME280;7902;49.042;9.092;2023-03-04T04:36:52;99638.00;;;4.88;56.02
15604;BME280;7902;49.042;9.092;2023-03-04T04:39:18;99646.72;;;4.86;55.81
15604;BME280;7902;49.042;9.092;2023-03-04T04:41:45;99644.91;;;4.89;56.23
15604;BME280;7902;49.042;9.092;2023-03-04T04:44:11;99655.31;;;4.89;56.17
15604;BME280;7902;49.042;9.092;2023-03-04T04:46:38;99655.38;;;4.87;56.32
15604;BME280;7902;49.042;9.092;2023-03-04T04:49:05;99653.00;;;4.81;56.57
15604;BME280;7902;49.042;9.092;2023-03-04T04:51:32;99654.56;;;4.85;56.08
15604;BME280;7902;49.042;9.092;2023-03-04T04:53:59;99655.69;;;4.79;56.91
15604;BME280;7902;49.042;9.092;2023-03-04T04:56:26;99665.47;;;4.73;57.45
15604;BME280;7902;49.042;9.092;2023-03-04T04:58:57;99673.09;;;4.77;56.76
15604;BME280;7902;49.042;9.092;2023-03-04T05:01:24;99671.41;;;4.76;57.16
15604;BME280;7902;49.042;9.092;2023-03-04T05:03:50;99660.31;;;4.71;56.80
15604;BME280;7902;49.042;9.092;2023-03-04T05:06:18;99669.84;;;4.72;57.28
15604;BME280;7902;49.042;9.092;2023-03-04T05:08:44;99673.94;;;4.78;56.96
15604;BME280;7902;49.042;9.092;2023-03-04T05:11:10;99674.31;;;4.69;56.97
15604;BME280;7902;49.042;9.092;2023-03-04T05:13:36;99671.84;;;4.66;56.87
15604;BME280;7902;49.042;9.092;2023-03-04T05:16:02;99675.84;;;4.74;57.17
15604;BME280;7902;49.042;9.092;2023-03-04T05:18:29;99680.06;;;4.77;57.74
15604;BME280;7902;49.042;9.092;2023-03-04T05:20:59;99676.50;;;4.79;57.17
15604;BME280;7902;49.042;9.092;2023-03-04T05:23:31;99673.91;;;4.79;57.37
15604;BME280;7902;49.042;9.092;2023-03-04T05:25:58;99675.16;;;4.69;57.86
15604;BME280;7902;49.042;9.092;2023-03-04T05:28:24;99668.97;;;4.72;57.51
15604;BME280;7902;49.042;9.092;2023-03-04T05:30:51;99674.94;;;4.75;57.61
15604;BME280;7902;49.042;9.092;2023-03-04T05:33:19;99676.03;;;4.70;57.75
15604;BME280;7902;49.042;9.092;2023-03-04T05:35:47;99672.84;;;4.62;57.84
15604;BME280;7902;49.042;9.092;2023-03-04T05:38:15;99676.88;;;4.70;57.84
15604;BME280;7902;49.042;9.092;2023-03-04T05:40:42;99674.44;;;4.66;58.35
15604;BME280;7902;49.042;9.092;2023-03-04T05:43:09;99678.19;;;4.59;58.06
15604;BME280;7902;49.042;9.092;2023-03-04T05:45:36;99672.84;;;4.62;57.87
15604;BME280;7902;49.042;9.092;2023-03-04T05:48:02;99675.88;;;4.73;57.47
15604;BME280;7902;49.042;9.092;2023-03-04T05:50:29;99680.38;;;4.69;57.50
15604;BME280;7902;49.042;9.092;2023-03-04T05:52:55;99673.94;;;4.78;57.65
15604;BME280;7902;49.042;9.092;2023-03-04T05:55:21;99675.84;;;4.74;57.99
15604;BME280;7902;49.042;9.092;2023-03-04T05:57:47;99680.47;;;4.66;57.85
15604;BME280;7902;49.042;9.092;2023-03-04T06:00:14;99676.88;;;4.70;58.06
15604;BME280;7902;49.042;9.092;2023-03-04T06:02:41;99682.13;;;4.69;58.00
15604;BME280;7902;49.042;9.092;2023-03-04T06:05:09;99692.66;;;4.66;58.08
15604;BME280;7902;49.042;9.092;2023-03-04T06:07:35;99692.72;;;4.64;58.39
15604;BME280;7902;49.042;9.092;2023-03-04T06:10:02;99694.75;;;4.56;58.22
15604;BME280;7902;49.042;9.092;2023-03-04T06:12:27;99698.69;;;4.66;57.93
15604;BME280;7902;49.042;9.092;2023-03-04T06:14:54;99700.47;;;4.66;58.45
15604;BME280;7902;49.042;9.092;2023-03-04T06:17:20;99707.28;;;4.68;57.98
15604;BME280;7902;49.042;9.092;2023-03-04T06:19:46;99706.47;;;4.66;58.50
15604;BME280;7902;49.042;9.092;2023-03-04T06:22:12;99713.50;;;4.64;58.23
15604;BME280;7902;49.042;9.092;2023-03-04T06:24:38;99718.59;;;4.67;58.29
15604;BME280;7902;49.042;9.092;2023-03-04T06:27:04;99704.84;;;4.64;58.11
15604;BME280;7902;49.042;9.092;2023-03-04T06:29:30;99716.28;;;4.60;58.49
15604;BME280;7902;49.042;9.092;2023-03-04T06:31:56;99724.59;;;4.69;58.43
15604;BME280;7902;49.042;9.092;2023-03-04T06:34:22;99714.06;;;4.72;58.26
15604;BME280;7902;49.042;9.092;2023-03-04T06:36:48;99726.22;;;4.72;58.47
15604;BME280;7902;49.042;9.092;2023-03-04T06:39:14;99724.63;;;4.68;58.73
15604;BME280;7902;49.042;9.092;2023-03-04T06:41:40;99720.72;;;4.79;58.92
15604;BME280;7902;49.042;9.092;2023-03-04T06:44:06;99726.13;;;4.75;58.54
15604;BME280;7902;49.042;9.092;2023-03-04T06:46:33;99728.63;;;4.76;58.45
15604;BME280;7902;49.042;9.092;2023-03-04T06:48:59;99731.84;;;4.83;58.50
15604;BME280;7902;49.042;9.092;2023-03-04T06:51:26;99734.69;;;4.77;58.66
15604;BME280;7902;49.042;9.092;2023-03-04T06:53:52;99734.69;;;4.77;58.66
15604;BME280;7902;49.042;9.092;2023-03-04T06:56:19;99730.47;;;4.74;58.38
15604;BME280;7902;49.042;9.092;2023-03-04T06:58:45;99743.28;;;4.79;58.78
15604;BME280;7902;49.042;9.092;2023-03-04T07:01:14;99742.56;;;4.75;58.82
15604;BME280;7902;49.042;9.092;2023-03-04T07:03:41;99743.28;;;4.79;58.55
15604;BME280;7902;49.042;9.092;2023-03-04T07:06:12;99744.91;;;4.81;58.25
15604;BME280;7902;49.042;9.092;2023-03-04T07:08:38;99755.16;;;4.86;58.51
15604;BME280;7902;49.042;9.092;2023-03-04T07:11:04;99751.41;;;4.93;58.09
15604;BME280;7902;49.042;9.092;2023-03-04T07:13:30;99758.50;;;4.90;58.47
15604;BME280;7902;49.042;9.092;2023-03-04T07:15:58;99756.72;;;4.90;58.56
15604;BME280;7902;49.042;9.092;2023-03-04T07:18:24;99762.66;;;4.94;58.40
15604;BME280;7902;49.042;9.092;2023-03-04T07:20:51;99767.56;;;5.01;58.38
15604;BME280;7902;49.042;9.092;2023-03-04T07:23:18;99762.41;;;5.00;58.82
15604;BME280;7902;49.042;9.092;2023-03-04T07:25:44;99764.78;;;5.06;58.51
15604;BME280;7902;49.042;9.092;2023-03-04T07:28:11;99753.47;;;5.07;58.88
15604;BME280;7902;49.042;9.092;2023-03-04T07:30:37;99751.75;;;5.06;58.43
15604;BME280;7902;49.042;9.092;2023-03-04T07:33:03;99756.72;;;5.12;58.74
15604;BME280;7902;49.042;9.092;2023-03-04T07:35:29;99754.72;;;5.18;58.38
15604;BME280;7902;49.042;9.092;2023-03-04T07:37:55;99758.84;;;5.24;58.43
15604;BME280;7902;49.042;9.092;2023-03-04T07:40:21;99762.06;;;5.30;57.79
15604;BME280;7902;49.042;9.092;2023-03-04T07:42:50;99753.34;;;5.32;58.08
15604;BME280;7902;49.042;9.092;2023-03-04T07:45:16;99760.97;;;5.36;58.39
15604;BME280;7902;49.042;9.092;2023-03-04T07:47:42;99760.03;;;5.37;58.08
15604;BME280;7902;49.042;9.092;2023-03-04T07:50:09;99766.94;;;5.38;58.06
15604;BME280;7902;49.042;9.092;2023-03-04T07:52:44;99777.34;;;5.38;57.93
15604;BME280;7902;49.042;9.092;2023-03-04T07:55:12;99776.25;;;5.44;58.29
15604;BME280;7902;49.042;9.092;2023-03-04T07:57:39;99781.34;;;5.47;58.23
15604;BME280;7902;49.042;9.092;2023-03-04T08:00:06;99785.69;;;5.46;58.20
15604;BME280;7902;49.042;9.092;2023-03-04T08:02:32;99783.94;;;5.47;58.22
15604;BME280;7902;49.042;9.092;2023-03-04T08:04:58;99782.78;;;5.54;58.15
15604;BME280;7902;49.042;9.092;2023-03-04T08:07:24;99789.09;;;5.48;58.46
15604;BME280;7902;49.042;9.092;2023-03-04T08:09:50;99788.06;;;5.52;57.62
15604;BME280;7902;49.042;9.092;2023-03-04T08:12:16;99790.59;;;5.54;57.95
15604;BME280;7902;49.042;9.092;2023-03-04T08:14:42;99787.28;;;5.70;57.55
15604;BME280;7902;49.042;9.092;2023-03-04T08:17:08;99789.13;;;5.68;58.07
15604;BME280;7902;49.042;9.092;2023-03-04T08:19:34;99789.25;;;5.65;57.58
15604;BME280;7902;49.042;9.092;2023-03-04T08:22:01;99789.13;;;5.68;57.57
15604;BME280;7902;49.042;9.092;2023-03-04T08:24:27;99778.44;;;5.74;57.68
15604;BME280;7902;49.042;9.092;2023-03-04T08:26:53;99789.31;;;5.84;58.00
15604;BME280;7902;49.042;9.092;2023-03-04T08:29:22;99786.09;;;5.79;57.86
15604;BME280;7902;49.042;9.092;2023-03-04T08:31:49;99784.97;;;5.85;57.91
15604;BME280;7902;49.042;9.092;2023-03-04T08:34:17;99791.84;;;5.87;57.78
15604;BME280;7902;49.042;9.092;2023-03-04T08:36:43;99794.31;;;5.90;57.76
15604;BME280;7902;49.042;9.092;2023-03-04T08:39:13;99798.94;;;5.84;57.95
15604;BME280;7902;49.042;9.092;2023-03-04T08:41:40;99789.81;;;5.94;57.57
15604;BME280;7902;49.042;9.092;2023-03-04T08:44:07;99795.47;;;6.03;58.25
15604;BME280;7902;49.042;9.092;2023-03-04T08:46:36;99793.91;;;6.20;57.92
15604;BME280;7902;49.042;9.092;2023-03-04T08:49:03;99793.06;;;6.19;57.31
15604;BME280;7902;49.042;9.092;2023-03-04T08:51:29;99795.66;;;6.19;57.44
15604;BME280;7902;49.042;9.092;2023-03-04T08:53:56;99778.41;;;6.16;57.43
15604;BME280;7902;49.042;9.092;2023-03-04T08:56:21;99794.88;;;6.17;57.95
15604;BME280;7902;49.042;9.092;2023-03-04T08:58:47;99786.78;;;6.23;57.39
15604;BME280;7902;49.042;9.092;2023-03-04T09:01:14;99787.66;;;6.24;57.50
15604;BME280;7902;49.042;9.092;2023-03-04T09:03:41;99790.63;;;6.35;57.17
15604;BME280;7902;49.042;9.092;2023-03-04T09:06:08;99790.34;;;6.41;57.58
15604;BME280;7902;49.042;9.092;2023-03-04T09:08:34;99786.34;;;6.52;57.50
15604;BME280;7902;49.042;9.092;2023-03-04T09:11:01;99786.31;;;6.73;56.24
15604;BME280;7902;49.042;9.092;2023-03-04T09:13:28;99784.72;;;6.69;56.91
15604;BME280;7902;49.042;9.092;2023-03-04T09:15:54;99779.81;;;6.63;56.71
15604;BME280;7902;49.042;9.092;2023-03-04T09:18:22;99783.53;;;6.57;56.84
15604;BME280;7902;49.042;9.092;2023-03-04T09:20:48;99782.84;;;6.72;56.72
15604;BME280;7902;49.042;9.092;2023-03-04T09:23:15;99781.94;;;6.73;57.17
15604;BME280;7902;49.042;9.092;2023-03-04T09:25:42;99779.59;;;6.86;56.59
15604;BME280;7902;49.042;9.092;2023-03-04T09:28:09;99778.69;;;6.87;56.95
15604;BME280;7902;49.042;9.092;2023-03-04T09:30:36;99780.88;;;6.96;56.28
15604;BME280;7902;49.042;9.092;2023-03-04T09:33:02;99780.78;;;6.97;56.97
15604;BME280;7902;49.042;9.092;2023-03-04T09:35:28;99784.88;;;7.03;56.65
15604;BME280;7902;49.042;9.092;2023-03-04T09:37:57;99786.94;;;6.96;56.43
15604;BME280;7902;49.042;9.092;2023-03-04T09:40:27;99786.72;;;7.01;56.24
15604;BME280;7902;49.042;9.092;2023-03-04T09:43:00;99783.56;;;7.12;55.38
15604;BME280;7902;49.042;9.092;2023-03-04T09:45:42;99783.34;;;7.16;56.26
15604;BME280;7902;49.042;9.092;2023-03-04T09:48:15;99793.06;;;7.14;55.61
15604;BME280;7902;49.042;9.092;2023-03-04T09:56:39;99791.19;;;7.16;55.60
15604;BME280;7902;49.042;9.092;2023-03-04T09:59:26;99797.03;;;7.21;55.01
15604;BME280;7902;49.042;9.092;2023-03-04T10:01:57;99788.47;;;7.19;54.95
15604;BME280;7902;49.042;9.092;2023-03-04T10:06:50;99796.28;;;7.19;55.99
15604;BME280;7902;49.042;9.092;2023-03-04T10:09:26;99795.16;;;7.25;55.33
15604;BME280;7902;49.042;9.092;2023-03-04T10:11:59;99794.16;;;7.27;55.67
15604;BME280;7902;49.042;9.092;2023-03-04T10:14:33;99796.53;;;7.32;55.04
15604;BME280;7902;49.042;9.092;2023-03-04T10:17:23;99797.69;;;7.26;55.80
15604;BME280;7902;49.042;9.092;2023-03-04T10:20:04;99796.03;;;7.42;54.53
15604;BME280;7902;49.042;9.092;2023-03-04T10:22:35;99785.25;;;7.31;54.90
15604;BME280;7902;49.042;9.092;2023-03-04T10:25:30;99784.78;;;7.40;54.34
15604;BME280;7902;49.042;9.092;2023-03-04T10:28:03;99782.41;;;7.36;54.40
15604;BME280;7902;49.042;9.092;2023-03-04T10:33:19;99779.50;;;7.42;54.15
15604;BME280;7902;49.042;9.092;2023-03-04T10:36:25;99777.81;;;7.41;54.23
15604;BME280;7902;49.042;9.092;2023-03-04T10:38:59;99783.88;;;7.41;54.18
15604;BME280;7902;49.042;9.092;2023-03-04T10:41:29;99775.75;;;7.47;53.79
15604;BME280;7902;49.042;9.092;2023-03-04T10:43:59;99781.88;;;7.46;53.80
15604;BME280;7902;49.042;9.092;2023-03-04T10:46:27;99775.34;;;7.38;54.15
15604;BME280;7902;49.042;9.092;2023-03-04T10:48:57;99780.13;;;7.47;54.03
15604;BME280;7902;49.042;9.092;2023-03-04T10:51:28;99769.63;;;7.48;53.70
15604;BME280;7902;49.042;9.092;2023-03-04T10:54:01;99770.59;;;7.46;53.83
15604;BME280;7902;49.042;9.092;2023-03-04T10:56:39;99768.66;;;7.49;54.27
15604;BME280;7902;49.042;9.092;2023-03-04T11:02:00;99762.00;;;7.61;53.98
15604;BME280;7902;49.042;9.092;2023-03-04T11:04:31;99769.97;;;7.58;53.86
15604;BME280;7902;49.042;9.092;2023-03-04T11:06:58;99764.69;;;7.60;53.84
15604;BME280;7902;49.042;9.092;2023-03-04T11:09:27;99763.94;;;7.58;54.02
15604;BME280;7902;49.042;9.092;2023-03-04T11:12:00;99765.28;;;7.65;53.81
15604;BME280;7902;49.042;9.092;2023-03-04T11:14:34;99761.16;;;7.61;53.39
15604;BME280;7902;49.042;9.092;2023-03-04T11:17:15;99763.69;;;7.62;52.99
15604;BME280;7902;49.042;9.092;2023-03-04T11:19:46;99760.00;;;7.66;53.21
15604;BME280;7902;49.042;9.092;2023-03-04T11:22:31;99761.59;;;7.52;53.29
15604;BME280;7902;49.042;9.092;2023-03-04T11:25:28;99760.13;;;7.63;53.45
15604;BME280;7902;49.042;9.092;2023-03-04T11:28:08;99757.38;;;7.49;53.58
15604;BME280;7902;49.042;9.092;2023-03-04T11:30:41;99753.78;;;7.52;52.75
15604;BME280;7902;49.042;9.092;2023-03-04T11:33:16;99756.63;;;7.47;52.66
15604;BME280;7902;49.042;9.092;2023-03-04T11:38:38;99755.75;;;7.46;53.13
15604;BME280;7902;49.042;9.092;2023-03-04T11:41:34;99752.69;;;7.56;53.46
15604;BME280;7902;49.042;9.092;2023-03-04T11:44:02;99742.84;;;7.61;52.95
15604;BME280;7902;49.042;9.092;2023-03-04T11:58:00;99741.03;;;7.63;52.32
15604;BME280;7902;49.042;9.092;2023-03-04T12:00:47;99736.00;;;7.58;53.04
15604;BME280;7902;49.042;9.092;2023-03-04T12:08:59;99721.78;;;7.46;53.22
15604;BME280;7902;49.042;9.092;2023-03-04T12:14:37;99719.97;;;7.48;52.36
15604;BME280;7902;49.042;9.092;2023-03-04T12:25:40;99701.28;;;7.56;53.05
15604;BME280;7902;49.042;9.092;2023-03-04T12:30:58;99697.41;;;7.63;52.25
15604;BME280;7902;49.042;9.092;2023-03-04T12:36:31;99683.72;;;7.58;52.37
15604;BME280;7902;49.042;9.092;2023-03-04T12:39:23;99681.59;;;7.66;52.48
15604;BME280;7902;49.042;9.092;2023-03-04T12:42:18;99689.66;;;7.62;52.34
15604;BME280;7902;49.042;9.092;2023-03-04T12:44:55;99675.28;;;7.70;52.09
15604;BME280;7902;49.042;9.092;2023-03-04T12:52:56;99675.03;;;7.75;51.75
15604;BME280;7902;49.042;9.092;2023-03-04T12:55:35;99674.88;;;7.78;51.52
15604;BME280;7902;49.042;9.092;2023-03-04T12:58:03;99668.53;;;7.66;52.13
15604;BME280;7902;49.042;9.092;2023-03-04T13:00:56;99667.03;;;7.78;51.98
15604;BME280;7902;49.042;9.092;2023-03-04T13:03:58;99665.19;;;7.80;51.83
15604;BME280;7902;49.042;9.092;2023-03-04T13:09:07;99665.94;;;7.82;51.65
15604;BME280;7902;49.042;9.092;2023-03-04T13:11:49;99660.56;;;7.85;52.45
15604;BME280;7902;49.042;9.092;2023-03-04T13:16:50;99651.63;;;7.89;51.24
15604;BME280;7902;49.042;9.092;2023-03-04T13:19:54;99663.31;;;7.82;51.75
15604;BME280;7902;49.042;9.092;2023-03-04T13:23:00;99661.06;;;7.91;51.26
15604;BME280;7902;49.042;9.092;2023-03-04T13:25:38;99659.03;;;7.81;51.80
15604;BME280;7902;49.042;9.092;2023-03-04T13:28:14;99648.94;;;7.90;52.15
15604;BME280;7902;49.042;9.092;2023-03-04T13:31:03;99657.59;;;7.91;52.13
15604;BME280;7902;49.042;9.092;2023-03-04T13:36:06;99665.31;;;7.94;51.64
15604;BME280;7902;49.042;9.092;2023-03-04T13:41:49;99665.94;;;7.82;51.67
15604;BME280;7902;49.042;9.092;2023-03-04T13:47:08;99661.06;;;7.91;51.39
15604;BME280;7902;49.042;9.092;2023-03-04T13:49:39;99649.75;;;7.91;51.36
15604;BME280;7902;49.042;9.092;2023-03-04T13:52:35;99647.69;;;7.98;51.74
15604;BME280;7902;49.042;9.092;2023-03-04T13:55:32;99649.19;;;7.86;51.27
15604;BME280;7902;49.042;9.092;2023-03-04T13:58:00;99642.38;;;7.99;51.16
15604;BME280;7902;49.042;9.092;2023-03-04T14:00:28;99649.25;;;7.84;51.48
15604;BME280;7902;49.042;9.092;2023-03-04T14:02:54;99643.63;;;7.92;51.61
15604;BME280;7902;49.042;9.092;2023-03-04T14:05:20;99640.25;;;7.90;51.42
15604;BME280;7902;49.042;9.092;2023-03-04T14:07:46;99635.78;;;7.92;51.49
15604;BME280;7902;49.042;9.092;2023-03-04T14:12:53;99639.47;;;7.88;51.36
15604;BME280;7902;49.042;9.092;2023-03-04T14:15:27;99629.03;;;7.88;51.23
15604;BME280;7902;49.042;9.092;2023-03-04T14:17:56;99624.88;;;7.84;51.30
15604;BME280;7902;49.042;9.092;2023-03-04T14:20:37;99637.97;;;7.84;51.31
15604;BME280;7902;49.042;9.092;2023-03-04T14:23:23;99626.75;;;7.98;51.16
15604;BME280;7902;49.042;9.092;2023-03-04T14:25:49;99629.03;;;7.88;52.08
15604;BME280;7902;49.042;9.092;2023-03-04T14:28:17;99616.22;;;7.99;51.52
15604;BME280;7902;49.042;9.092;2023-03-04T14:30:51;99618.50;;;8.05;51.19
15604;BME280;7902;49.042;9.092;2023-03-04T14:33:22;99617.75;;;8.03;51.02
15604;BME280;7902;49.042;9.092;2023-03-04T14:35:59;99618.44;;;8.07;51.08
15604;BME280;7902;49.042;9.092;2023-03-04T14:38:29;99618.66;;;8.02;51.14
15604;BME280;7902;49.042;9.092;2023-03-04T14:41:06;99611.59;;;8.04;51.24
15604;BME280;7902;49.042;9.092;2023-03-04T14:43:39;99608.13;;;8.04;50.96
15604;BME280;7902;49.042;9.092;2023-03-04T14:46:11;99603.75;;;8.04;50.68
15604;BME280;7902;49.042;9.092;2023-03-04T14:48:38;99606.50;;;8.01;51.30
15604;BME280;7902;49.042;9.092;2023-03-04T14:51:29;99608.13;;;8.04;50.99
15604;BME280;7902;49.042;9.092;2023-03-04T14:53:56;99602.81;;;8.05;51.10
15604;BME280;7902;49.042;9.092;2023-03-04T14:56:29;99600.13;;;8.07;51.36